Time;durP1;ratioP1;P1;durP2;ratioP2;P2;SDS_P1;SDS_P2;PMS_P1;PMS_P2;Temp;Humidity;BMP_temperature;BMP_pressure;BME280_temperature;BME280_humidity;BME280_pressure;Samples;Min_cycle;Max_cycle;Signal;HPM_P1;HPM_P2
2021/08/09 00:09:46;;;;;;;11.20;3.70;;;;;;;17.80;100.00;100321.28;714386;1176;114648;-80
2021/08/09 00:24:48;;;;;;;5.33;4.10;;;;;;;17.39;100.00;100339.40;714454;1200;115373;-82
2021/08/09 00:39:50;;;;;;;15.90;8.23;;;;;;;17.37;100.00;100339.58;714414;1200;115136;-82
2021/08/09 00:54:53;;;;;;;9.25;4.93;;;;;;;17.39;100.00;100350.81;714696;1175;114884;-83
2021/08/09 01:10:18;;;;;;;9.08;6.30;;;;;;;17.35;100.00;100354.02;714623;1176;114524;-83
2021/08/09 01:25:57;;;;;;;8.25;5.15;;;;;;;17.37;100.00;100357.33;714456;1200;114870;-83
2021/08/09 01:40:59;;;;;;;8.55;6.05;;;;;;;17.25;100.00;100343.67;714268;1202;114307;-83
2021/08/09 01:56:02;;;;;;;5.90;4.40;;;;;;;17.09;100.00;100349.89;714267;1177;114682;-83
2021/08/09 02:11:13;;;;;;;7.85;4.95;;;;;;;16.99;100.00;100342.18;714311;1200;114160;-81
2021/08/09 02:26:27;;;;;;;7.03;4.63;;;;;;;16.80;100.00;100360.14;715433;1204;114139;-80
2021/08/09 02:41:29;;;;;;;7.20;4.58;;;;;;;16.67;100.00;100370.48;714079;1177;114134;-80
2021/08/09 02:56:33;;;;;;;6.45;4.60;;;;;;;16.63;100.00;100391.19;714314;1200;115959;-81
2021/08/09 03:11:36;;;;;;;7.83;5.37;;;;;;;16.55;100.00;100396.52;715640;1200;113986;-81
2021/08/09 03:26:38;;;;;;;12.43;5.63;;;;;;;16.51;100.00;100418.20;714620;1177;114162;-83
2021/08/09 03:41:40;;;;;;;13.43;7.67;;;;;;;16.53;100.00;100448.81;714884;1178;115134;-82
2021/08/09 03:56:42;;;;;;;18.27;7.77;;;;;;;16.60;100.00;100463.05;714208;1200;114812;-81
2021/08/09 04:11:45;;;;;;;10.57;6.40;;;;;;;16.38;100.00;100499.00;714166;1200;113934;-84
2021/08/09 04:26:47;;;;;;;8.33;5.18;;;;;;;16.31;100.00;100511.23;716574;1202;114940;-84
2021/08/09 04:41:49;;;;;;;6.13;5.03;;;;;;;16.86;100.00;100514.92;715583;1193;115086;-84
2021/08/09 04:57:10;;;;;;;6.57;5.07;;;;;;;17.73;100.00;100527.27;715368;1200;115736;-88
2021/08/09 05:12:12;;;;;;;4.63;3.80;;;;;;;18.49;100.00;100515.06;718519;1166;114623;-87
2021/08/09 05:27:14;;;;;;;4.58;3.03;;;;;;;19.20;100.00;100510.13;715891;1202;114890;-88
2021/08/09 05:42:16;;;;;;;2.85;2.43;;;;;;;19.44;100.00;100545.39;715896;1200;114689;-84
2021/08/09 05:57:19;;;;;;;3.83;2.78;;;;;;;18.43;100.00;100575.86;715490;1177;114118;-89
2021/08/09 06:12:21;;;;;;;3.30;2.23;;;;;;;18.16;100.00;100560.50;715570;1204;115572;-89
2021/08/09 06:27:23;;;;;;;6.03;2.90;;;;;;;18.51;100.00;100544.94;715234;1200;114587;-82
2021/08/09 06:42:25;;;;;;;4.58;2.50;;;;;;;19.40;100.00;100560.89;714294;1178;114064;-80
2021/08/09 06:57:27;;;;;;;5.97;2.60;;;;;;;20.18;100.00;100578.07;715871;1203;114712;-80
2021/08/09 07:12:30;;;;;;;2.98;2.10;;;;;;;21.24;100.00;100582.51;714525;1203;114526;-79
2021/08/09 07:27:32;;;;;;;3.60;2.00;;;;;;;21.73;100.00;100581.46;717030;1202;114600;-81
2021/08/09 07:42:34;;;;;;;3.37;1.73;;;;;;;22.69;97.22;100592.05;715127;1200;114280;-76
2021/08/09 07:57:36;;;;;;;5.43;2.03;;;;;;;23.19;94.12;100599.57;714839;1178;113919;-77
2021/08/09 08:12:39;;;;;;;2.18;1.40;;;;;;;23.92;89.78;100614.48;715205;1200;114101;-76
2021/08/09 08:27:41;;;;;;;3.03;1.73;;;;;;;23.97;84.81;100621.88;714392;1202;114011;-76
2021/08/09 08:42:47;;;;;;;8.90;1.70;;;;;;;24.79;81.01;100618.36;714319;1200;113915;-76
2021/08/09 08:57:49;;;;;;;2.87;1.20;;;;;;;25.07;75.66;100634.79;714950;1200;113995;-78
2021/08/09 09:13:06;;;;;;;2.80;1.68;;;;;;;25.63;73.41;100634.77;714093;1170;114261;-78
2021/08/09 09:28:32;;;;;;;3.55;1.90;;;;;;;25.54;71.00;100641.50;714708;1177;114292;-77
2021/08/09 09:43:40;;;;;;;2.87;1.60;;;;;;;25.72;66.99;100648.69;714353;1200;114816;-81
2021/08/09 09:58:42;;;;;;;4.78;1.90;;;;;;;25.69;65.61;100667.95;714404;1206;114471;-75
2021/08/09 10:13:45;;;;;;;1.83;1.73;;;;;;;25.88;63.36;100671.41;715031;1202;115176;-76
2021/08/09 10:28:54;;;;;;;1.73;1.38;;;;;;;26.93;61.09;100679.97;714179;1179;114383;-75
2021/08/09 10:44:02;;;;;;;3.68;1.55;;;;;;;26.05;59.70;100696.65;714343;1202;113792;-77
2021/08/09 10:59:04;;;;;;;5.07;2.03;;;;;;;26.64;59.19;100687.88;714365;1178;115131;-74
2021/08/09 11:14:11;;;;;;;5.73;2.50;;;;;;;26.93;58.30;100671.09;714462;1202;114983;-75
2021/08/09 11:29:14;;;;;;;2.38;1.48;;;;;;;27.64;55.96;100677.18;714338;1200;115544;-69
2021/08/09 11:44:24;;;;;;;1.90;1.53;;;;;;;27.27;54.73;100688.25;716016;1202;113897;-71
2021/08/09 11:59:26;;;;;;;1.68;1.00;;;;;;;27.56;54.69;100699.92;714641;1200;113887;-79
2021/08/09 12:14:28;;;;;;;2.60;1.48;;;;;;;28.25;54.54;100703.66;716723;1200;114878;-80
2021/08/09 12:29:31;;;;;;;1.67;1.20;;;;;;;28.08;54.20;100695.53;717049;1202;115018;-76
2021/08/09 12:44:33;;;;;;;1.50;1.20;;;;;;;27.77;53.96;100710.28;714360;1182;113700;-80
2021/08/09 12:59:35;;;;;;;2.33;0.88;;;;;;;28.13;52.72;100711.00;714490;1200;115365;-79
2021/08/09 13:14:37;;;;;;;1.83;1.10;;;;;;;28.79;53.02;100702.41;714499;1194;115183;-81
2021/08/09 13:29:40;;;;;;;1.30;1.10;;;;;;;28.80;50.78;100701.34;714963;1202;115237;-79
2021/08/09 13:44:42;;;;;;;2.50;1.60;;;;;;;29.23;50.30;100691.67;714453;1179;113818;-79
2021/08/09 13:59:44;;;;;;;2.98;1.20;;;;;;;28.20;49.95;100696.31;714336;1202;115091;-76
2021/08/09 14:14:46;;;;;;;2.20;1.10;;;;;;;28.75;49.44;100680.48;714527;1203;114143;-82
2021/08/09 14:29:49;;;;;;;8.27;1.00;;;;;;;35.80;44.14;100689.31;714759;1200;113906;-78
2021/08/09 14:44:52;;;;;;;1.55;1.00;;;;;;;37.56;40.04;100682.34;714685;1202;114482;-81
2021/08/09 14:59:54;;;;;;;2.03;1.05;;;;;;;31.71;44.34;100675.59;722401;1200;114987;-82
2021/08/09 15:14:56;;;;;;;3.70;0.90;;;;;;;29.46;46.11;100687.14;714744;1203;114648;-82
2021/08/09 15:29:58;;;;;;;1.98;1.10;;;;;;;28.68;48.16;100694.14;715921;1200;115181;-81
2021/08/09 15:45:01;;;;;;;1.60;1.27;;;;;;;27.82;49.24;100688.83;714689;1200;114171;-82
2021/08/09 16:00:06;;;;;;;2.28;1.88;;;;;;;27.05;49.54;100683.50;715135;1203;113858;-79
2021/08/09 16:15:08;;;;;;;2.73;1.67;;;;;;;26.40;50.94;100695.11;714743;1200;115015;-76
2021/08/09 16:30:11;;;;;;;2.83;1.90;;;;;;;26.53;51.58;100688.70;714723;1200;115997;-75
2021/08/09 16:45:13;;;;;;;1.90;1.50;;;;;;;25.66;52.91;100682.66;714523;1200;115461;-78
2021/08/09 17:00:16;;;;;;;3.13;2.03;;;;;;;25.00;54.06;100663.54;714465;1200;113570;-78
2021/08/09 17:15:18;;;;;;;8.98;3.88;;;;;;;24.91;56.61;100670.23;714581;1203;114047;-76
2021/08/09 17:30:21;;;;;;;45.67;21.40;;;;;;;24.51;58.21;100676.73;716180;1200;113034;-87
2021/08/09 17:45:23;;;;;;;20.45;9.25;;;;;;;23.84;59.86;100674.44;717300;1198;116014;-88
2021/08/09 18:00:26;;;;;;;6.10;4.13;;;;;;;23.17;62.59;100673.86;716048;1203;114051;-89
2021/08/09 18:15:28;;;;;;;4.05;2.48;;;;;;;22.60;64.58;100679.64;715890;1180;113361;-89
2021/08/09 18:30:30;;;;;;;9.18;3.75;;;;;;;22.27;67.11;100691.09;715975;1200;114446;-86
2021/08/09 18:45:32;;;;;;;11.93;6.77;;;;;;;21.74;69.47;100705.92;715401;1205;114061;-81
2021/08/09 19:00:35;;;;;;;7.20;5.08;;;;;;;21.31;71.27;100706.07;714796;1202;114665;-80
2021/08/09 19:15:39;;;;;;;9.57;5.67;;;;;;;20.89;72.98;100721.16;715042;1177;114495;-79
2021/08/09 19:30:41;;;;;;;12.43;7.73;;;;;;;20.51;76.58;100722.25;722699;1200;114416;-86
2021/08/09 19:45:43;;;;;;;14.60;7.60;;;;;;;20.26;79.47;100721.79;719534;1203;114129;-87
2021/08/09 20:00:46;;;;;;;45.07;28.20;;;;;;;19.84;83.03;100726.83;714943;1200;114229;-87
2021/08/09 20:15:48;;;;;;;24.68;14.95;;;;;;;19.65;85.50;100724.70;714330;1200;114984;-89
2021/08/09 20:30:50;;;;;;;13.38;5.98;;;;;;;19.56;85.47;100724.80;714237;1200;114257;-88
2021/08/09 20:45:53;;;;;;;25.68;11.75;;;;;;;19.49;86.37;100736.35;714242;1202;114157;-88
2021/08/09 21:00:58;;;;;;;23.60;11.35;;;;;;;19.22;87.30;100751.92;714668;1200;114271;-87
2021/08/09 21:16:00;;;;;;;33.13;18.00;;;;;;;18.94;90.06;100758.64;714609;1177;114218;-88
2021/08/09 21:31:03;;;;;;;12.15;7.28;;;;;;;18.66;89.43;100758.34;714525;1184;114318;-86
2021/08/09 21:46:05;;;;;;;8.33;5.27;;;;;;;18.35;89.08;100763.68;714268;1176;114516;-88
2021/08/09 22:01:08;;;;;;;8.98;4.50;;;;;;;18.14;90.52;100765.09;714300;1200;115031;-89
2021/08/09 22:16:10;;;;;;;9.33;5.50;;;;;;;17.94;90.79;100767.35;714074;1205;114120;-89
2021/08/09 22:31:14;;;;;;;7.05;4.25;;;;;;;17.62;91.77;100753.17;714339;1202;115853;-88
2021/08/09 22:46:21;;;;;;;8.10;4.65;;;;;;;17.45;93.03;100755.84;714039;1200;114516;-88
2021/08/09 23:01:23;;;;;;;9.48;5.60;;;;;;;17.00;94.29;100754.58;714614;1202;114733;-88
2021/08/09 23:16:25;;;;;;;7.98;5.43;;;;;;;17.03;96.92;100753.42;715018;1200;115176;-88
2021/08/09 23:31:28;;;;;;;8.88;5.30;;;;;;;17.05;98.24;100754.06;714237;1197;114431;-88
2021/08/09 23:46:31;;;;;;;11.05;5.95;;;;;;;16.93;99.34;100750.92;714836;1200;113393;-88
